Airport View

Enter AWOS ICAO identifier for current METAR.

ex. KFNL

KSUS 031554Z 00000KT 10SM SCT027 SCT037 29/23 A3000 RMK AO2 SLP149 T02940228

3 Jul 2020 16:09

Frequency: 134.8

Phone: 314-890-7255

Other Area AWOS: KSTL - KFYG - KSET - KCPS

TAF KSUS 031120Z 0312/0412 VRB03KT 4SM BR FEW180 FM031300 VRB04KT P6SM FEW180 FM031500 10005KT P6SM SCT050 FM031900 07006KT P6SM BKN050 FM040100 VRB04KT P6SM FEW250